createdAt,value
2018-02-19T00:00:59.842Z,6.40
2018-02-19T00:03:27.266Z,6.40
2018-02-19T00:05:54.704Z,6.70
2018-02-19T00:08:22.140Z,6.70
2018-02-19T00:10:49.575Z,6.80
2018-02-19T00:13:17.733Z,7.00
2018-02-19T00:15:45.933Z,7.20
2018-02-19T00:18:13.361Z,7.20
2018-02-19T00:20:41.576Z,7.10
2018-02-19T00:23:09.690Z,7.10
2018-02-19T00:25:37.124Z,6.80
2018-02-19T00:28:04.545Z,7.00
2018-02-19T00:30:31.982Z,6.70
2018-02-19T00:33:00.178Z,6.80
2018-02-19T00:35:27.623Z,6.80
2018-02-19T00:37:55.806Z,7.10
2018-02-19T00:40:23.236Z,7.10
2018-02-19T00:42:51.442Z,6.70
2018-02-19T00:45:18.878Z,6.70
2018-02-19T00:47:47.077Z,6.80
2018-02-19T00:50:14.517Z,6.80
2018-02-19T00:52:42.709Z,6.90
2018-02-19T00:55:10.145Z,6.90
2018-02-19T00:57:38.332Z,7.20
2018-02-19T01:00:05.792Z,7.20
2018-02-19T01:02:33.227Z,7.20
2018-02-19T01:05:01.435Z,7.10
2018-02-19T01:07:28.873Z,7.10
2018-02-19T01:09:57.052Z,7.40
2018-02-19T01:12:24.485Z,7.30
2018-02-19T01:14:51.933Z,7.20
2018-02-19T01:17:19.367Z,7.10
2018-02-19T01:19:46.792Z,7.10
2018-02-19T01:22:14.222Z,7.10
2018-02-19T01:24:41.641Z,7.20
2018-02-19T01:27:09.077Z,7.30
2018-02-19T01:29:36.506Z,7.40
2018-02-19T01:32:03.969Z,7.30
2018-02-19T01:34:31.397Z,7.20
2018-02-19T01:36:58.942Z,7.20
2018-02-19T01:39:26.362Z,7.10
2018-02-19T01:41:53.797Z,7.20
2018-02-19T01:44:21.245Z,7.20
2018-02-19T01:46:49.441Z,7.20
2018-02-19T01:49:16.867Z,7.20
2018-02-19T01:51:45.064Z,7.10
2018-02-19T01:54:12.496Z,7.10
2018-02-19T01:56:40.692Z,7.00
2018-02-19T01:59:08.132Z,7.00
2018-02-19T02:01:36.344Z,7.00
2018-02-19T02:04:03.786Z,7.00
2018-02-19T02:06:31.238Z,7.00
2018-02-19T02:08:59.250Z,6.90
2018-02-19T02:11:26.680Z,6.80
2018-02-19T02:13:54.096Z,6.60
2018-02-19T02:16:21.533Z,6.40
2018-02-19T02:18:48.959Z,6.30
2018-02-19T02:21:16.396Z,6.20
2018-02-19T02:23:44.609Z,6.30
2018-02-19T02:26:12.038Z,6.30
2018-02-19T02:28:39.456Z,6.50
2018-02-19T02:31:06.890Z,6.50
2018-02-19T02:33:34.303Z,6.30
2018-02-19T02:36:01.721Z,6.50
2018-02-19T02:38:29.151Z,6.60
2018-02-19T02:40:56.578Z,6.50
2018-02-19T02:43:24.010Z,6.30
2018-02-19T02:45:52.205Z,6.30
2018-02-19T02:48:19.652Z,6.20
2018-02-19T02:50:47.077Z,6.50
2018-02-19T02:53:14.508Z,6.60
2018-02-19T02:55:41.933Z,6.50
2018-02-19T02:58:09.377Z,6.60
2018-02-19T03:00:37.572Z,6.60
2018-02-19T03:03:04.999Z,6.60
2018-02-19T03:05:33.186Z,6.50
2018-02-19T03:08:01.397Z,6.10
2018-02-19T03:10:28.809Z,6.10
2018-02-19T03:12:57.036Z,5.70
2018-02-19T03:15:24.461Z,5.70
2018-02-19T03:17:51.895Z,5.30
2018-02-19T03:20:20.097Z,5.40
2018-02-19T03:22:47.529Z,5.40
2018-02-19T03:25:15.718Z,6.00
2018-02-19T03:27:43.932Z,5.90
2018-02-19T03:30:12.067Z,5.90
2018-02-19T03:32:40.258Z,6.00
2018-02-19T03:35:07.682Z,6.00
2018-02-19T03:37:35.880Z,6.10
2018-02-19T03:40:03.310Z,6.10
2018-02-19T03:42:30.746Z,6.20
2018-02-19T03:44:58.160Z,6.30
2018-02-19T03:47:25.598Z,6.30
2018-02-19T03:49:53.793Z,6.60
2018-02-19T03:52:21.234Z,6.50
2018-02-19T03:54:49.440Z,6.20
2018-02-19T03:57:16.880Z,6.20
2018-02-19T03:59:44.320Z,6.00
2018-02-19T04:02:12.545Z,6.00
2018-02-19T04:04:39.956Z,6.00
2018-02-19T04:07:07.385Z,5.80
2018-02-19T04:09:34.825Z,5.40
2018-02-19T04:12:02.268Z,5.30
2018-02-19T04:14:29.705Z,5.20
2018-02-19T04:16:57.116Z,4.90
2018-02-19T04:19:24.560Z,4.90
2018-02-19T04:21:51.980Z,5.20
2018-02-19T04:24:19.431Z,5.30
2018-02-19T04:26:46.845Z,5.70
2018-02-19T04:29:14.271Z,6.00
2018-02-19T04:31:41.721Z,5.90
2018-02-19T04:34:09.154Z,6.10
2018-02-19T04:36:36.590Z,6.10
2018-02-19T04:39:04.810Z,6.10
2018-02-19T04:41:32.237Z,6.10
2018-02-19T04:43:59.900Z,6.30
2018-02-19T04:46:29.905Z,6.20
2018-02-19T04:48:58.096Z,6.40
2018-02-19T04:51:25.525Z,6.50
2018-02-19T04:53:53.745Z,6.00
2018-02-19T04:56:21.181Z,6.00
2018-02-19T04:58:48.608Z,6.00
2018-02-19T05:01:16.029Z,5.60
2018-02-19T05:03:43.457Z,5.70
2018-02-19T05:06:10.876Z,5.70
2018-02-19T05:08:38.309Z,5.90
2018-02-19T05:11:05.765Z,6.00
2018-02-19T05:13:33.960Z,5.60
2018-02-19T05:16:01.389Z,5.60
2018-02-19T05:18:28.816Z,5.50
2018-02-19T05:20:56.263Z,5.50
2018-02-19T05:23:24.459Z,5.40
2018-02-19T05:25:51.885Z,5.40
2018-02-19T05:28:20.089Z,5.10
2018-02-19T05:30:47.514Z,5.10
2018-02-19T05:33:15.713Z,5.30
2018-02-19T05:35:43.139Z,5.30
2018-02-19T05:38:10.582Z,5.10
2018-02-19T05:40:37.997Z,5.30
2018-02-19T05:43:05.434Z,5.50
2018-02-19T05:45:32.872Z,5.60
2018-02-19T05:48:01.070Z,5.30
2018-02-19T05:50:28.501Z,5.30
2018-02-19T05:52:56.714Z,5.50
2018-02-19T05:55:24.150Z,5.50
2018-02-19T05:57:52.345Z,5.40
2018-02-19T06:00:19.783Z,5.40
2018-02-19T06:02:47.988Z,5.70
2018-02-19T06:05:15.402Z,5.70
2018-02-19T06:07:43.593Z,6.10
2018-02-19T06:10:11.020Z,6.00
2018-02-19T06:12:38.436Z,6.00
2018-02-19T06:15:05.866Z,5.90
2018-02-19T06:17:33.293Z,6.10
2018-02-19T06:20:00.745Z,6.00
2018-02-19T06:22:28.188Z,6.00
2018-02-19T06:24:55.620Z,5.90
2018-02-19T06:27:23.037Z,5.70
2018-02-19T06:29:51.243Z,5.70
2018-02-19T06:32:18.704Z,5.60
2018-02-19T06:34:46.113Z,5.60
2018-02-19T06:37:13.537Z,5.60
2018-02-19T06:39:40.961Z,5.40
2018-02-19T06:42:08.381Z,5.30
2018-02-19T06:44:35.837Z,5.60
2018-02-19T06:47:03.264Z,5.80
2018-02-19T06:49:30.702Z,5.80
2018-02-19T06:51:58.123Z,5.90
2018-02-19T06:54:26.330Z,6.20
2018-02-19T06:56:53.737Z,6.20
2018-02-19T06:59:21.174Z,5.90
2018-02-19T07:01:48.597Z,6.00
2018-02-19T07:04:16.032Z,6.10
2018-02-19T07:06:44.224Z,6.20
2018-02-19T07:09:11.661Z,6.20
2018-02-19T07:11:39.857Z,5.80
2018-02-19T07:14:07.286Z,5.80
2018-02-19T07:16:35.485Z,6.10
2018-02-19T07:19:02.925Z,6.20
2018-02-19T07:21:31.120Z,5.50
2018-02-19T07:23:58.560Z,5.40
2018-02-19T07:26:26.761Z,5.50
2018-02-19T07:28:54.212Z,5.50
2018-02-19T07:31:21.655Z,4.90
2018-02-19T07:33:49.857Z,6.00
2018-02-19T07:36:17.305Z,6.00
2018-02-19T07:38:44.729Z,6.30
2018-02-19T07:41:12.934Z,6.20
2018-02-19T07:43:40.358Z,6.20
2018-02-19T07:46:07.797Z,6.10
2018-02-19T07:48:35.254Z,6.10
2018-02-19T07:51:02.750Z,5.90
2018-02-19T07:53:30.186Z,5.90
2018-02-19T07:55:57.618Z,6.00
2018-02-19T07:58:25.055Z,6.10
2018-02-19T08:00:52.493Z,6.20
2018-02-19T08:03:19.928Z,5.70
2018-02-19T08:05:48.138Z,6.10
2018-02-19T08:08:15.566Z,6.10
2018-02-19T08:10:43.773Z,6.20
2018-02-19T08:13:11.204Z,6.20
2018-02-19T08:15:38.635Z,6.40
2018-02-19T08:18:06.056Z,6.10
2018-02-19T08:20:33.498Z,6.20
2018-02-19T08:23:00.921Z,6.40
2018-02-19T08:25:29.133Z,6.50
2018-02-19T08:27:56.577Z,6.50
2018-02-19T08:30:24.021Z,6.80
2018-02-19T08:32:52.229Z,7.00
2018-02-19T08:35:19.653Z,6.90
2018-02-19T08:37:47.084Z,7.50
2018-02-19T08:40:14.514Z,7.80
2018-02-19T08:42:42.696Z,7.70
2018-02-19T08:45:10.172Z,7.70
2018-02-19T08:47:37.555Z,7.20
2018-02-19T08:50:05.759Z,7.60
2018-02-19T08:52:33.181Z,7.60
2018-02-19T08:55:00.697Z,7.60
2018-02-19T08:57:28.118Z,8.00
2018-02-19T08:59:55.548Z,8.00
2018-02-19T09:02:23.748Z,7.80
2018-02-19T09:04:51.189Z,7.80
2018-02-19T09:07:18.625Z,8.30
2018-02-19T09:09:46.047Z,8.50
2018-02-19T09:12:13.514Z,8.20
2018-02-19T09:14:40.937Z,8.30
2018-02-19T09:17:08.373Z,8.00
2018-02-19T09:19:36.589Z,7.90
2018-02-19T09:22:04.046Z,7.90
2018-02-19T09:24:31.513Z,8.20
2018-02-19T09:26:58.913Z,8.30
2018-02-19T09:29:27.728Z,8.30
2018-02-19T09:31:55.153Z,8.20
2018-02-19T09:34:22.595Z,8.50
2018-02-19T09:36:50.042Z,8.60
2018-02-19T09:39:17.466Z,8.70
2018-02-19T09:41:44.914Z,8.40
2018-02-19T09:44:12.330Z,8.30
2018-02-19T09:46:39.768Z,8.50
2018-02-19T09:49:07.206Z,8.50
2018-02-19T09:51:34.842Z,8.30
2018-02-19T09:54:02.269Z,8.70
2018-02-19T09:56:29.721Z,10.70
2018-02-19T09:58:57.327Z,13.00
2018-02-19T10:01:26.785Z,16.90
2018-02-19T10:03:54.224Z,16.90
2018-02-19T10:06:21.709Z,18.50
2018-02-19T10:08:49.122Z,19.60
2018-02-19T10:11:17.009Z,18.70
2018-02-19T10:13:44.452Z,17.30
2018-02-19T10:16:11.897Z,15.90
2018-02-19T10:18:39.360Z,16.00
2018-02-19T10:21:07.560Z,16.50
2018-02-19T10:23:34.988Z,16.50
2018-02-19T10:26:02.439Z,15.90
2018-02-19T10:28:29.856Z,17.20
2018-02-19T10:30:58.068Z,18.40
2018-02-19T10:33:25.493Z,18.40
2018-02-19T10:35:53.704Z,18.20
2018-02-19T10:38:21.117Z,18.20
2018-02-19T10:40:49.337Z,19.00
2018-02-19T10:43:16.764Z,19.00
2018-02-19T10:45:44.970Z,18.70
2018-02-19T10:48:12.417Z,18.70
2018-02-19T10:50:39.834Z,18.20
2018-02-19T10:53:07.272Z,17.70
2018-02-19T10:55:34.701Z,17.10
2018-02-19T10:58:02.142Z,17.00
2018-02-19T11:00:35.209Z,16.70
2018-02-19T11:03:03.429Z,16.70
2018-02-19T11:05:30.848Z,16.70
2018-02-19T11:07:58.305Z,16.60
2018-02-19T11:10:26.615Z,15.50
2018-02-19T11:12:54.026Z,15.50
2018-02-19T11:15:22.219Z,15.40
2018-02-19T11:17:49.667Z,15.40
2018-02-19T11:20:17.106Z,15.50
2018-02-19T11:22:44.552Z,15.90
2018-02-19T11:25:11.976Z,16.00
2018-02-19T11:27:39.422Z,16.50
2018-02-19T11:30:06.852Z,16.90
2018-02-19T11:32:35.050Z,16.40
2018-02-19T11:35:02.521Z,16.30
2018-02-19T11:37:29.942Z,16.70
2018-02-19T11:39:58.151Z,17.70
2018-02-19T11:42:25.581Z,17.70
2018-02-19T11:44:53.764Z,18.80
2018-02-19T11:47:21.205Z,18.70
2018-02-19T11:49:49.392Z,18.70
2018-02-19T11:52:16.830Z,18.60
2018-02-19T11:54:45.035Z,17.80
2018-02-19T11:57:12.466Z,17.70
2018-02-19T11:59:40.666Z,16.90
2018-02-19T12:02:08.121Z,16.80
2018-02-19T12:04:35.548Z,16.60
2018-02-19T12:07:02.985Z,16.70
2018-02-19T12:09:30.442Z,16.90
2018-02-19T12:11:58.896Z,16.60
2018-02-19T12:14:26.352Z,16.40
2018-02-19T12:16:53.781Z,16.50
2018-02-19T12:19:21.221Z,16.20
2018-02-19T12:21:49.440Z,15.70
2018-02-19T12:24:16.895Z,15.70
2018-02-19T12:26:44.330Z,15.80
2018-02-19T12:29:11.755Z,15.50
2018-02-19T12:31:39.180Z,15.20
2018-02-19T12:34:06.637Z,15.30
2018-02-19T12:36:34.085Z,15.50
2018-02-19T12:39:01.512Z,15.90
2018-02-19T12:41:28.948Z,16.30
2018-02-19T12:43:56.410Z,16.40
2018-02-19T12:46:23.825Z,16.10
2018-02-19T12:48:51.262Z,15.80
2018-02-19T12:51:18.688Z,15.50
2018-02-19T12:53:46.890Z,15.80
2018-02-19T12:56:14.315Z,15.80
2018-02-19T12:58:42.521Z,16.30
2018-02-19T13:01:09.951Z,16.20
2018-02-19T13:03:38.162Z,16.10
2018-02-19T13:06:05.587Z,16.10
2018-02-19T13:08:33.791Z,16.20
2018-02-19T13:11:01.477Z,16.20
2018-02-19T13:13:28.915Z,16.10
2018-02-19T13:15:56.349Z,16.50
2018-02-19T13:18:23.825Z,17.00
2018-02-19T13:20:51.998Z,18.00
2018-02-19T13:23:20.133Z,18.00
2018-02-19T13:25:48.332Z,18.50
2018-02-19T13:28:15.781Z,18.50
2018-02-19T13:30:43.987Z,18.30
2018-02-19T13:33:11.429Z,18.30
2018-02-19T13:35:38.867Z,17.50
2018-02-19T13:38:07.063Z,16.30
2018-02-19T13:40:34.498Z,16.20
2018-02-19T13:43:02.710Z,15.30
2018-02-19T13:45:30.133Z,15.20
2018-02-19T13:47:58.329Z,14.70
2018-02-19T13:50:25.764Z,14.70
2018-02-19T13:52:53.965Z,15.00
2018-02-19T13:55:21.406Z,15.00
2018-02-19T13:57:48.845Z,15.50
2018-02-19T14:00:16.273Z,15.70
2018-02-19T14:02:43.722Z,14.90
2018-02-19T14:05:11.161Z,14.90
2018-02-19T14:07:38.597Z,15.10
2018-02-19T14:10:06.025Z,15.00
2018-02-19T14:12:33.490Z,15.00
2018-02-19T14:15:01.619Z,14.50
2018-02-19T14:17:29.070Z,14.50
2018-02-19T14:19:56.502Z,14.50
2018-02-19T14:22:23.945Z,14.50
2018-02-19T14:24:52.145Z,14.10
2018-02-19T14:27:19.572Z,14.10
2018-02-19T14:29:47.783Z,13.90
2018-02-19T14:32:15.205Z,13.80
2018-02-19T14:34:43.408Z,12.90
2018-02-19T14:37:10.841Z,12.90
2018-02-19T14:39:39.068Z,12.90
2018-02-19T14:42:06.513Z,12.80
2018-02-19T14:44:33.944Z,13.00
2018-02-19T14:47:01.756Z,13.00
2018-02-19T14:49:30.009Z,12.90
2018-02-19T14:51:57.437Z,13.00
2018-02-19T14:54:25.638Z,13.10
2018-02-19T14:56:53.062Z,13.10
2018-02-19T14:59:21.291Z,13.40
2018-02-19T15:01:48.701Z,13.30
2018-02-19T15:04:16.904Z,12.70
2018-02-19T15:06:44.330Z,12.70
2018-02-19T15:09:12.538Z,13.10
2018-02-19T15:11:39.973Z,13.10
2018-02-19T15:14:07.429Z,13.10
2018-02-19T15:16:34.862Z,13.40
2018-02-19T15:19:02.295Z,13.30
2018-02-19T15:21:29.729Z,13.30
2018-02-19T15:23:57.165Z,13.30
2018-02-19T15:26:24.596Z,12.80
2018-02-19T15:28:52.822Z,13.00
2018-02-19T15:31:20.270Z,13.00
2018-02-19T15:33:47.692Z,13.10
2018-02-19T15:36:15.887Z,12.70
2018-02-19T15:38:43.308Z,12.70
2018-02-19T15:41:10.790Z,12.50
2018-02-19T15:43:38.990Z,12.80
2018-02-19T15:46:06.492Z,12.80
2018-02-19T15:48:33.933Z,12.70
2018-02-19T15:51:02.588Z,12.70
2018-02-19T15:53:30.017Z,12.70
2018-02-19T15:55:58.231Z,12.60
2018-02-19T15:58:25.677Z,12.60
2018-02-19T16:00:53.097Z,12.80
2018-02-19T16:03:21.306Z,12.60
2018-02-19T16:05:48.741Z,12.60
2018-02-19T16:08:16.965Z,12.60
2018-02-19T16:10:44.391Z,12.60
2018-02-19T16:13:11.823Z,12.50
2018-02-19T16:15:40.033Z,12.30
2018-02-19T16:18:07.457Z,12.30
2018-02-19T16:20:35.660Z,12.00
2018-02-19T16:23:03.095Z,12.00
2018-02-19T16:25:31.306Z,11.70
2018-02-19T16:27:58.732Z,11.70
2018-02-19T16:30:26.169Z,11.70
2018-02-19T16:32:53.589Z,11.70
2018-02-19T16:35:21.034Z,11.70
2018-02-19T16:37:48.458Z,11.70
2018-02-19T16:40:16.667Z,11.40
2018-02-19T16:42:44.149Z,11.40
2018-02-19T16:45:11.667Z,11.30
2018-02-19T16:47:39.836Z,11.30
2018-02-19T16:50:08.178Z,11.30
2018-02-19T16:52:35.615Z,11.10
2018-02-19T16:55:03.061Z,11.10
2018-02-19T16:57:31.248Z,10.90
2018-02-19T16:59:58.688Z,10.90
2018-02-19T17:02:26.144Z,10.90
2018-02-19T17:04:53.589Z,10.90
2018-02-19T17:07:21.055Z,11.00
2018-02-19T17:09:48.511Z,10.90
2018-02-19T17:12:15.970Z,10.70
2018-02-19T17:14:43.396Z,10.00
2018-02-19T17:17:11.584Z,10.60
2018-02-19T17:19:39.030Z,10.60
2018-02-19T17:22:07.218Z,10.80
2018-02-19T17:24:34.689Z,10.70
2018-02-19T17:27:02.168Z,10.90
2018-02-19T17:29:29.619Z,10.90
2018-02-19T17:31:57.061Z,10.80
2018-02-19T17:34:24.501Z,10.90
2018-02-19T17:36:51.940Z,11.00
2018-02-19T17:39:20.142Z,10.90
2018-02-19T17:41:47.574Z,10.90
2018-02-19T17:44:15.782Z,10.80
2018-02-19T17:46:43.212Z,10.80
2018-02-19T17:49:10.641Z,10.80
2018-02-19T17:51:38.086Z,10.60
2018-02-19T17:54:05.517Z,10.60
2018-02-19T17:56:32.957Z,10.50
2018-02-19T17:59:00.381Z,10.40
2018-02-19T18:01:28.585Z,10.40
2018-02-19T18:03:56.013Z,10.40
2018-02-19T18:06:24.248Z,10.50
2018-02-19T18:08:51.691Z,10.40
2018-02-19T18:11:19.153Z,10.50
2018-02-19T18:13:46.578Z,10.60
2018-02-19T18:16:14.795Z,10.50
2018-02-19T18:18:42.252Z,10.50
2018-02-19T18:21:09.677Z,10.40
2018-02-19T18:23:37.100Z,10.30
2018-02-19T18:26:04.536Z,10.20
2018-02-19T18:28:31.966Z,10.20
2018-02-19T18:30:59.425Z,10.30
2018-02-19T18:33:26.845Z,10.30
2018-02-19T18:35:55.044Z,10.20
2018-02-19T18:38:22.478Z,10.20
2018-02-19T18:40:50.702Z,10.20
2018-02-19T18:43:18.135Z,10.20
2018-02-19T18:45:45.570Z,10.20
2018-02-19T18:48:13.764Z,10.00
2018-02-19T18:50:41.259Z,10.00
2018-02-19T18:53:09.405Z,10.10
2018-02-19T18:55:36.833Z,10.10
2018-02-19T18:58:05.065Z,10.10
2018-02-19T19:00:32.517Z,10.10
2018-02-19T19:02:59.944Z,10.10
2018-02-19T19:05:27.397Z,10.10
2018-02-19T19:08:06.534Z,10.10
2018-02-19T19:10:58.645Z,10.00
2018-02-19T19:13:26.867Z,9.90
2018-02-19T19:15:54.295Z,9.90
2018-02-19T19:18:21.724Z,9.80
2018-02-19T19:20:49.151Z,9.80
2018-02-19T19:23:16.622Z,9.70
2018-02-19T19:25:44.090Z,9.60
2018-02-19T19:28:11.530Z,9.50
2018-02-19T19:30:38.981Z,9.40
2018-02-19T19:33:06.407Z,9.20
2018-02-19T19:35:33.840Z,9.20
2018-02-19T19:38:02.956Z,9.00
2018-02-19T19:40:30.400Z,9.00
2018-02-19T19:42:58.611Z,9.00
2018-02-19T19:45:26.052Z,9.00
2018-02-19T19:47:53.485Z,9.00
2018-02-19T19:50:21.707Z,8.90
2018-02-19T19:52:49.173Z,8.90
2018-02-19T19:55:16.608Z,8.90
2018-02-19T19:57:44.061Z,8.80
2018-02-19T20:00:11.525Z,8.80
2018-02-19T20:02:39.059Z,8.80
2018-02-19T20:05:06.613Z,8.80
2018-02-19T20:07:34.035Z,8.70
2018-02-19T20:10:01.562Z,8.70
2018-02-19T20:12:29.076Z,8.70
2018-02-19T20:14:57.946Z,8.70
2018-02-19T20:17:26.361Z,8.70
2018-02-19T20:19:55.644Z,8.70
2018-02-19T20:22:23.287Z,8.60
2018-02-19T20:24:50.976Z,8.70
2018-02-19T20:27:23.034Z,8.80
2018-02-19T20:29:51.023Z,8.70
2018-02-19T20:32:19.293Z,8.80
2018-02-19T20:34:47.036Z,8.80
2018-02-19T20:37:14.992Z,8.80
2018-02-19T20:39:42.520Z,8.80
2018-02-19T20:42:09.953Z,8.80
2018-02-19T20:44:37.375Z,8.90
2018-02-19T20:47:05.197Z,8.90
2018-02-19T20:49:32.621Z,8.90
2018-02-19T20:52:00.872Z,8.90
2018-02-19T20:54:28.292Z,8.90
2018-02-19T20:56:55.729Z,8.90
2018-02-19T20:59:23.157Z,8.80
2018-02-19T21:01:51.380Z,8.70
2018-02-19T21:04:18.842Z,8.70
2018-02-19T21:06:46.951Z,8.60
2018-02-19T21:09:14.424Z,8.60
2018-02-19T21:11:41.867Z,8.60
2018-02-19T21:14:09.339Z,8.50
2018-02-19T21:16:36.812Z,8.40
2018-02-19T21:19:05.025Z,8.30
2018-02-19T21:21:32.557Z,8.20
2018-02-19T21:23:59.996Z,8.10
2018-02-19T21:26:28.776Z,7.80
2018-02-19T21:28:56.230Z,7.80
2018-02-19T21:31:23.698Z,7.70
2018-02-19T21:33:51.958Z,7.50
2018-02-19T21:36:19.448Z,7.50
2018-02-19T21:38:46.900Z,7.30
2018-02-19T21:41:15.101Z,7.20
2018-02-19T21:43:42.533Z,7.10
2018-02-19T21:46:10.781Z,7.00
2018-02-19T21:48:38.275Z,7.00
2018-02-19T21:51:05.647Z,6.90
2018-02-19T21:53:33.072Z,6.80
2018-02-19T21:56:01.268Z,6.80
2018-02-19T21:58:28.697Z,6.70
2018-02-19T22:00:56.128Z,6.70
2018-02-19T22:03:23.559Z,6.60
2018-02-19T22:05:50.976Z,6.50
2018-02-19T22:08:19.177Z,6.40
2018-02-19T22:10:46.602Z,6.40
2018-02-19T22:13:14.796Z,6.30
2018-02-19T22:15:42.229Z,6.30
2018-02-19T22:18:09.664Z,6.20
2018-02-19T22:20:37.102Z,6.20
2018-02-19T22:23:04.569Z,6.20
2018-02-19T22:25:31.964Z,6.10
2018-02-19T22:27:59.459Z,6.20
2018-02-19T22:30:26.904Z,6.20
2018-02-19T22:32:54.341Z,6.20
2018-02-19T22:35:22.596Z,6.10
2018-02-19T22:37:49.969Z,6.10
2018-02-19T22:40:18.170Z,6.10
2018-02-19T22:42:45.600Z,6.00
2018-02-19T22:45:13.798Z,5.90
2018-02-19T22:47:41.252Z,5.90
2018-02-19T22:50:09.457Z,5.80
2018-02-19T22:52:36.889Z,5.80
2018-02-19T22:55:04.810Z,5.80
2018-02-19T22:57:32.237Z,5.70
2018-02-19T22:59:59.669Z,5.60
2018-02-19T23:02:27.100Z,5.60
2018-02-19T23:04:54.607Z,5.60
2018-02-19T23:07:22.038Z,5.60
2018-02-19T23:09:50.248Z,5.50
2018-02-19T23:12:17.694Z,5.50
2018-02-19T23:14:45.122Z,5.50
2018-02-19T23:17:13.331Z,5.50
2018-02-19T23:19:40.775Z,5.50
2018-02-19T23:22:08.468Z,5.50
2018-02-19T23:24:35.903Z,5.40
2018-02-19T23:27:03.328Z,5.40
2018-02-19T23:29:31.536Z,5.30
2018-02-19T23:31:58.970Z,5.30
2018-02-19T23:34:27.176Z,5.30
2018-02-19T23:36:54.606Z,5.30
2018-02-19T23:39:22.051Z,5.30
2018-02-19T23:41:50.242Z,5.20
2018-02-19T23:44:17.677Z,5.20
2018-02-19T23:46:45.904Z,5.30
2018-02-19T23:49:13.329Z,5.30
2018-02-19T23:51:40.757Z,5.30
2018-02-19T23:54:08.205Z,5.30
2018-02-19T23:56:35.621Z,5.30
2018-02-19T23:59:03.058Z,5.30
